createdAt,value
2023-05-05T00:01:38.103Z,101024.56
2023-05-05T00:04:05.144Z,101024.17
2023-05-05T00:06:32.189Z,101022.48
2023-05-05T00:08:59.250Z,101021.08
2023-05-05T00:11:26.286Z,101020.05
2023-05-05T00:13:53.329Z,101023.33
2023-05-05T00:16:20.522Z,101025.86
2023-05-05T00:18:48.150Z,101024.36
2023-05-05T00:21:15.944Z,101018.82
2023-05-05T00:23:42.944Z,101018.78
2023-05-05T00:26:09.981Z,101019.48
2023-05-05T00:28:38.085Z,101016.96
2023-05-05T00:31:05.285Z,101017.98
2023-05-05T00:33:32.444Z,101016.48
2023-05-05T00:35:59.417Z,101017.25
2023-05-05T00:40:34.078Z,101023.67
2023-05-05T00:43:01.213Z,101029.30
2023-05-05T00:45:28.380Z,101030.31
2023-05-05T00:47:57.695Z,101025.52
2023-05-05T00:50:29.709Z,101026.52
2023-05-05T00:52:59.068Z,101028.04
2023-05-05T00:55:26.423Z,101028.11
2023-05-05T00:57:53.579Z,101030.96
2023-05-05T01:00:20.698Z,101030.41
2023-05-05T01:02:47.738Z,101030.73
2023-05-05T01:05:15.316Z,101026.92
2023-05-05T01:07:48.773Z,101025.61
2023-05-05T01:10:34.351Z,101021.05
2023-05-05T01:13:13.467Z,101015.42
2023-05-05T01:15:44.217Z,101011.38
2023-05-05T01:18:17.055Z,101012.49
2023-05-05T01:21:14.819Z,101010.35
2023-05-05T01:24:15.013Z,101010.46
2023-05-05T01:26:57.574Z,101007.23
2023-05-05T01:29:38.804Z,101010.45
2023-05-05T01:32:11.032Z,101009.66
2023-05-05T01:34:42.298Z,101009.72
2023-05-05T01:37:16.503Z,101010.31
2023-05-05T01:39:43.573Z,101006.11
2023-05-05T01:42:14.134Z,101006.55
2023-05-05T01:44:44.806Z,101006.75
2023-05-05T01:47:16.368Z,101000.05
2023-05-05T01:49:44.386Z,100996.86
2023-05-05T01:52:11.403Z,100997.39
2023-05-05T01:54:38.635Z,100998.13
2023-05-05T01:57:05.831Z,100994.69
2023-05-05T01:59:33.725Z,100994.02
2023-05-05T02:02:01.596Z,100997.25
2023-05-05T02:04:29.116Z,100996.59
2023-05-05T02:06:59.836Z,100995.06
2023-05-05T02:09:27.072Z,100993.34
2023-05-05T02:11:54.119Z,100995.50
2023-05-05T02:14:21.211Z,100993.95
2023-05-05T02:16:48.246Z,100995.02
2023-05-05T02:19:15.247Z,100995.36
2023-05-05T02:21:42.379Z,100999.70
2023-05-05T02:24:09.398Z,100996.67
2023-05-05T02:26:39.104Z,100994.67
2023-05-05T02:29:08.155Z,100999.07
2023-05-05T02:31:39.174Z,100999.97
2023-05-05T02:34:06.790Z,101007.23
2023-05-05T02:36:38.154Z,101011.29
2023-05-05T02:39:14.219Z,101009.20
2023-05-05T02:41:41.826Z,101012.82
2023-05-05T02:44:14.328Z,101019.15
2023-05-05T02:46:42.628Z,101021.96
2023-05-05T02:49:09.762Z,101025.88
2023-05-05T02:51:37.749Z,101019.39
2023-05-05T02:54:07.418Z,101013.87
2023-05-05T02:56:48.957Z,101014.27
2023-05-05T02:59:38.460Z,101013.08
2023-05-05T03:02:17.762Z,101011.21
2023-05-05T03:04:55.456Z,101013.52
2023-05-05T03:07:26.002Z,101013.01
2023-05-05T03:09:56.506Z,101014.44
2023-05-05T03:12:28.153Z,101017.13
2023-05-05T03:15:01.538Z,101018.13
2023-05-05T03:17:30.080Z,101022.11
2023-05-05T03:19:57.659Z,101022.13
2023-05-05T03:22:24.832Z,101026.53
2023-05-05T03:24:51.916Z,101030.27
2023-05-05T03:27:22.234Z,101031.68
2023-05-05T03:29:49.303Z,101032.66
2023-05-05T03:32:16.556Z,101032.08
2023-05-05T03:34:43.870Z,101038.75
2023-05-05T03:37:11.165Z,101044.55
2023-05-05T03:39:38.852Z,101051.66
2023-05-05T03:42:06.697Z,101056.30
2023-05-05T03:44:34.908Z,101060.77
2023-05-05T03:47:02.014Z,101064.15
2023-05-05T03:49:29.605Z,101065.75
2023-05-05T03:51:56.669Z,101064.70
2023-05-05T03:54:24.026Z,101071.64
2023-05-05T03:56:51.702Z,101079.52
2023-05-05T03:59:18.709Z,101082.86
2023-05-05T04:01:46.900Z,101089.19
2023-05-05T04:04:14.070Z,101102.20
2023-05-05T04:06:41.158Z,101109.24
2023-05-05T04:09:08.826Z,101119.02
2023-05-05T04:11:36.041Z,101121.77
2023-05-05T04:14:03.640Z,101122.36
2023-05-05T04:16:31.317Z,101127.48
2023-05-05T04:18:58.817Z,101132.48
2023-05-05T04:21:25.960Z,101146.44
2023-05-05T04:23:53.115Z,101169.14
2023-05-05T04:26:21.213Z,101182.66
2023-05-05T04:28:49.635Z,101189.02
2023-05-05T04:31:17.029Z,101203.09
2023-05-05T04:33:44.602Z,101212.87
2023-05-05T04:36:11.945Z,101205.77
2023-05-05T04:38:39.134Z,101199.97
2023-05-05T04:41:06.738Z,101186.91
2023-05-05T04:43:34.465Z,101163.08
2023-05-05T04:46:01.944Z,101145.44
2023-05-05T04:48:31.053Z,101126.50
2023-05-05T04:50:58.049Z,101117.42
2023-05-05T04:53:25.201Z,101112.05
2023-05-05T04:55:52.333Z,101107.92
2023-05-05T04:58:19.330Z,101101.82
2023-05-05T05:00:46.706Z,101100.00
2023-05-05T05:03:13.805Z,101097.52
2023-05-05T05:05:40.852Z,101094.44
2023-05-05T05:08:08.429Z,101087.80
2023-05-05T05:10:36.060Z,101086.43
2023-05-05T05:13:03.192Z,101081.45
2023-05-05T05:15:30.357Z,101078.55
2023-05-05T05:17:58.221Z,101077.98
2023-05-05T05:20:25.381Z,101079.22
2023-05-05T05:22:52.408Z,101077.77
2023-05-05T05:25:20.021Z,101073.06
2023-05-05T05:27:55.263Z,101072.04
2023-05-05T05:30:33.921Z,101068.55
2023-05-05T05:33:02.476Z,101062.35
2023-05-05T05:35:30.010Z,101058.64
2023-05-05T05:37:57.153Z,101063.64
2023-05-05T05:40:24.904Z,101068.70
2023-05-05T05:42:51.975Z,101075.30
2023-05-05T05:45:19.078Z,101072.42
2023-05-05T05:47:46.223Z,101070.69
2023-05-05T05:50:14.128Z,101068.42
2023-05-05T05:52:41.751Z,101060.23
2023-05-05T05:55:09.744Z,101059.61
2023-05-05T05:57:37.287Z,101057.58
2023-05-05T06:00:06.723Z,101053.33
2023-05-05T06:02:39.093Z,101046.38
2023-05-05T06:05:08.258Z,101036.79
2023-05-05T06:07:35.617Z,101033.11
2023-05-05T06:10:14.676Z,101030.77
2023-05-05T06:12:50.152Z,101025.37
2023-05-05T06:15:17.324Z,101028.71
2023-05-05T06:17:44.449Z,101026.23
2023-05-05T06:20:13.160Z,101015.16
2023-05-05T06:22:40.290Z,101016.23
2023-05-05T06:25:07.761Z,101005.17
2023-05-05T06:27:35.295Z,101001.61
2023-05-05T06:30:02.304Z,100996.15
2023-05-05T06:32:29.398Z,100998.73
2023-05-05T06:34:56.476Z,100999.77
2023-05-05T06:37:23.489Z,100998.83
2023-05-05T06:39:51.030Z,100998.71
2023-05-05T06:42:18.069Z,100997.10
2023-05-05T06:44:45.833Z,100991.48
2023-05-05T06:47:12.975Z,100989.39
2023-05-05T06:49:40.004Z,100991.20
2023-05-05T06:52:08.480Z,100988.08
2023-05-05T06:54:35.493Z,100987.56
2023-05-05T06:57:02.565Z,100988.95
2023-05-05T06:59:29.721Z,100985.15
2023-05-05T07:01:58.411Z,100974.13
2023-05-05T07:04:25.442Z,100963.21
2023-05-05T07:06:52.500Z,100958.70
2023-05-05T07:09:20.564Z,100953.68
2023-05-05T07:11:47.593Z,100953.42
2023-05-05T07:14:14.665Z,100949.66
2023-05-05T07:16:41.816Z,100947.45
2023-05-05T07:19:08.970Z,100943.96
2023-05-05T07:21:36.764Z,100935.91
2023-05-05T07:24:04.330Z,100932.97
2023-05-05T07:26:31.697Z,100934.36
2023-05-05T07:28:59.183Z,100933.14
2023-05-05T07:31:26.777Z,100931.23
2023-05-05T07:33:53.995Z,100926.95
2023-05-05T07:36:21.118Z,100916.64
2023-05-05T07:38:48.171Z,100913.71
2023-05-05T07:41:15.191Z,100914.55
2023-05-05T07:43:44.186Z,100908.81
2023-05-05T07:46:12.341Z,100907.44
2023-05-05T07:48:41.553Z,100905.66
2023-05-05T07:51:09.712Z,100900.48
2023-05-05T07:53:37.256Z,100897.14
2023-05-05T07:56:04.432Z,100889.99
2023-05-05T07:58:31.481Z,100883.61
2023-05-05T08:00:58.588Z,100883.11
2023-05-05T08:03:25.722Z,100880.73
2023-05-05T08:05:56.627Z,100872.63
2023-05-05T08:08:27.193Z,100873.19
2023-05-05T08:10:54.784Z,100871.46
2023-05-05T08:13:21.888Z,100864.36
2023-05-05T08:15:49.010Z,100864.81
2023-05-05T08:18:16.119Z,100857.82
2023-05-05T08:20:43.281Z,100861.20
2023-05-05T08:23:10.509Z,100857.11
2023-05-05T08:25:37.500Z,100857.73
2023-05-05T08:28:04.590Z,100854.34
2023-05-05T08:30:31.828Z,100853.42
2023-05-05T08:32:59.604Z,100848.73
2023-05-05T08:35:26.666Z,100848.19
2023-05-05T08:37:53.920Z,100841.30
2023-05-05T08:40:22.389Z,100836.52
2023-05-05T08:42:49.403Z,100833.08
2023-05-05T08:45:17.073Z,100834.23
2023-05-05T08:47:44.896Z,100833.88
2023-05-05T08:50:12.096Z,100823.65
2023-05-05T08:52:41.112Z,100817.34
2023-05-05T08:55:15.877Z,100816.09
2023-05-05T08:58:03.362Z,100812.69
2023-05-05T09:00:30.728Z,100809.86
2023-05-05T09:02:59.194Z,100810.11
2023-05-05T09:05:26.582Z,100808.20
2023-05-05T09:07:53.650Z,100807.63
2023-05-05T09:10:20.800Z,100807.96
2023-05-05T09:12:49.784Z,100808.66
2023-05-05T09:15:16.911Z,100799.07
2023-05-05T09:17:44.614Z,100794.64
2023-05-05T09:20:12.857Z,100795.58
2023-05-05T09:22:41.882Z,100795.08
2023-05-05T09:25:11.791Z,100794.97
2023-05-05T09:27:43.573Z,100792.13
2023-05-05T09:30:12.354Z,100791.16
2023-05-05T09:32:52.480Z,100783.92
2023-05-05T09:35:20.085Z,100785.25
2023-05-05T09:37:47.184Z,100777.77
2023-05-05T09:40:15.933Z,100778.98
2023-05-05T09:42:43.010Z,100779.33
2023-05-05T09:45:30.423Z,100779.41
2023-05-05T09:48:00.226Z,100778.37
2023-05-05T09:50:30.909Z,100774.28
2023-05-05T09:53:02.400Z,100771.08
2023-05-05T09:55:31.277Z,100768.61
2023-05-05T09:58:20.151Z,100765.45
2023-05-05T10:00:47.959Z,100766.17
2023-05-05T10:03:15.114Z,100766.82
2023-05-05T10:05:47.986Z,100765.30
2023-05-05T10:08:15.093Z,100759.81
2023-05-05T10:11:14.710Z,100766.76
2023-05-05T10:13:44.599Z,100762.61
2023-05-05T10:16:12.275Z,100758.23
2023-05-05T10:18:39.294Z,100753.70
2023-05-05T10:21:06.321Z,100747.84
2023-05-05T10:23:39.693Z,100747.43
2023-05-05T10:26:07.849Z,100746.48
2023-05-05T10:28:44.460Z,100739.80
2023-05-05T10:31:25.651Z,100740.66
2023-05-05T10:34:04.271Z,100738.80
2023-05-05T10:36:32.055Z,100733.39
2023-05-05T10:38:59.389Z,100734.54
2023-05-05T10:41:29.167Z,100733.96
2023-05-05T10:43:57.707Z,100733.08
2023-05-05T10:46:28.690Z,100727.64
2023-05-05T10:49:49.659Z,100720.70
2023-05-05T10:52:47.789Z,100718.42
2023-05-05T10:55:38.149Z,100721.75
2023-05-05T10:58:05.258Z,100719.36
2023-05-05T11:00:38.409Z,100719.31
2023-05-05T11:03:18.244Z,100721.80
2023-05-05T11:06:03.925Z,100715.89
2023-05-05T11:08:34.870Z,100716.99
2023-05-05T11:11:02.448Z,100709.60
2023-05-05T11:13:29.536Z,100707.31
2023-05-05T11:15:57.377Z,100702.55
2023-05-05T11:18:31.417Z,100695.59
2023-05-05T11:20:58.423Z,100697.77
2023-05-05T11:23:28.790Z,100693.90
2023-05-05T11:25:57.744Z,100696.98
2023-05-05T11:28:31.315Z,100699.14
2023-05-05T11:30:58.822Z,100691.17
2023-05-05T11:33:33.016Z,100684.23
2023-05-05T11:36:07.710Z,100681.57
2023-05-05T11:38:37.891Z,100678.29
2023-05-05T11:41:23.785Z,100677.20
2023-05-05T11:43:50.927Z,100667.90
2023-05-05T11:46:18.151Z,100670.44
2023-05-05T11:48:54.552Z,100666.77
2023-05-05T11:51:22.595Z,100664.89
2023-05-05T11:53:49.905Z,100667.93
2023-05-05T11:56:22.060Z,100669.45
2023-05-05T11:58:49.599Z,100668.83
2023-05-05T12:01:17.031Z,100667.54
2023-05-05T12:03:45.944Z,100666.31
2023-05-05T12:06:13.313Z,100660.00
2023-05-05T12:08:41.031Z,100661.40
2023-05-05T12:11:09.199Z,100658.17
2023-05-05T12:13:36.243Z,100650.08
2023-05-05T12:16:13.472Z,100646.60
2023-05-05T12:18:40.744Z,100645.14
2023-05-05T12:21:17.850Z,100641.34
2023-05-05T12:23:44.991Z,100640.23
2023-05-05T12:26:29.423Z,100639.23
2023-05-05T12:28:57.454Z,100632.42
2023-05-05T12:31:37.972Z,100631.53
2023-05-05T12:34:06.485Z,100627.34
2023-05-05T12:36:34.180Z,100617.54
2023-05-05T12:39:01.553Z,100615.85
2023-05-05T12:41:29.053Z,100608.66
2023-05-05T12:43:59.578Z,100607.92
2023-05-05T12:46:26.866Z,100603.70
2023-05-05T12:49:06.961Z,100597.33
2023-05-05T12:51:35.204Z,100599.80
2023-05-05T12:54:10.139Z,100595.47
2023-05-05T12:58:18.791Z,100594.15
2023-05-05T13:00:46.080Z,100588.43
2023-05-05T13:03:20.229Z,100587.23
2023-05-05T13:05:47.615Z,100588.23
2023-05-05T13:08:14.695Z,100589.40
2023-05-05T13:10:57.857Z,100589.61
2023-05-05T13:13:24.962Z,100585.55
2023-05-05T13:15:52.085Z,100587.38
2023-05-05T13:18:19.218Z,100584.89
2023-05-05T13:20:46.280Z,100578.00
2023-05-05T13:23:13.261Z,100574.11
2023-05-05T13:25:40.322Z,100571.23
2023-05-05T13:28:07.321Z,100566.87
2023-05-05T13:30:34.277Z,100566.14
2023-05-05T13:33:03.632Z,100566.19
2023-05-05T13:35:30.966Z,100563.63
2023-05-05T13:37:58.039Z,100569.27
2023-05-05T13:40:25.973Z,100564.92
2023-05-05T13:42:53.156Z,100557.02
2023-05-05T13:45:20.207Z,100560.14
2023-05-05T13:47:47.221Z,100559.22
2023-05-05T13:50:14.341Z,100559.89
2023-05-05T13:52:41.989Z,100556.15
2023-05-05T13:55:09.906Z,100556.71
2023-05-05T13:57:37.051Z,100556.77
2023-05-05T14:00:04.619Z,100555.31
2023-05-05T14:02:34.670Z,100549.17
2023-05-05T14:05:01.688Z,100547.67
2023-05-05T14:07:28.708Z,100547.77
2023-05-05T14:09:55.740Z,100545.05
2023-05-05T14:12:23.921Z,100546.04
2023-05-05T14:14:50.957Z,100540.57
2023-05-05T14:17:17.994Z,100540.98
2023-05-05T14:19:45.202Z,100535.43
2023-05-05T14:22:12.253Z,100539.40
2023-05-05T14:24:39.242Z,100531.96
2023-05-05T14:27:06.316Z,100532.54
2023-05-05T14:29:33.295Z,100535.58
2023-05-05T14:32:00.298Z,100532.64
2023-05-05T14:34:27.420Z,100528.27
2023-05-05T14:36:54.449Z,100528.20
2023-05-05T14:39:21.744Z,100522.96
2023-05-05T14:41:48.783Z,100520.85
2023-05-05T14:44:15.959Z,100517.77
2023-05-05T14:46:44.652Z,100518.09
2023-05-05T14:49:12.928Z,100516.15
2023-05-05T14:51:39.916Z,100516.73
2023-05-05T14:54:14.214Z,100514.13
2023-05-05T14:56:44.530Z,100513.09
2023-05-05T14:59:11.532Z,100507.33
2023-05-05T15:01:38.605Z,100510.68
2023-05-05T15:04:05.720Z,100509.41
2023-05-05T15:06:32.792Z,100507.90
2023-05-05T15:08:59.874Z,100506.77
2023-05-05T15:11:26.906Z,100506.21
2023-05-05T15:13:53.975Z,100507.59
2023-05-05T15:16:21.404Z,100504.33
2023-05-05T15:18:48.463Z,100508.83
2023-05-05T15:21:15.591Z,100508.34
2023-05-05T15:23:42.597Z,100508.54
2023-05-05T15:26:09.672Z,100502.31
2023-05-05T15:28:36.778Z,100503.42
2023-05-05T15:31:03.762Z,100504.51
2023-05-05T15:33:31.267Z,100498.31
2023-05-05T15:35:58.378Z,100502.30
2023-05-05T15:38:25.834Z,100500.73
2023-05-05T15:40:52.832Z,100499.17
2023-05-05T15:43:20.107Z,100498.93
2023-05-05T15:45:47.145Z,100500.25
2023-05-05T15:48:14.343Z,100499.15
2023-05-05T15:50:41.380Z,100504.88
2023-05-05T15:53:08.444Z,100503.97
2023-05-05T15:55:36.091Z,100502.96
2023-05-05T15:58:03.129Z,100501.75
2023-05-05T16:00:31.621Z,100506.59
2023-05-05T16:02:58.699Z,100503.83
2023-05-05T16:05:25.770Z,100505.11
2023-05-05T16:07:53.815Z,100505.46
2023-05-05T16:10:21.029Z,100502.53
2023-05-05T16:12:48.077Z,100501.13
2023-05-05T16:15:15.074Z,100501.19
2023-05-05T16:17:42.178Z,100498.51
2023-05-05T16:20:10.272Z,100504.01
2023-05-05T16:22:37.322Z,100505.11
2023-05-05T16:25:04.696Z,100506.84
2023-05-05T16:27:31.665Z,100509.35
2023-05-05T16:29:59.811Z,100507.85
2023-05-05T16:32:27.104Z,100508.77
2023-05-05T16:34:54.089Z,100510.85
2023-05-05T16:37:21.103Z,100511.77
2023-05-05T16:39:48.347Z,100515.14
2023-05-05T16:42:15.362Z,100514.73
2023-05-05T16:44:42.331Z,100519.58
2023-05-05T16:47:09.521Z,100519.52
2023-05-05T16:49:36.576Z,100521.96
2023-05-05T16:52:03.810Z,100521.81
2023-05-05T16:54:30.998Z,100522.95
2023-05-05T16:56:58.409Z,100525.11
2023-05-05T16:59:25.404Z,100519.64
2023-05-05T17:01:52.392Z,100521.89
2023-05-05T17:04:19.448Z,100522.40
2023-05-05T17:06:46.537Z,100520.63
2023-05-05T17:09:13.569Z,100524.25
2023-05-05T17:11:40.633Z,100523.00
2023-05-05T17:14:07.701Z,100529.09
2023-05-05T17:16:34.818Z,100530.49
2023-05-05T17:19:01.803Z,100529.95
2023-05-05T17:21:29.437Z,100532.48
2023-05-05T17:23:56.558Z,100539.39
2023-05-05T17:26:24.564Z,100556.14
2023-05-05T17:28:52.129Z,100562.61
2023-05-05T17:31:19.292Z,100568.58
2023-05-05T17:33:46.380Z,100569.00
2023-05-05T17:36:13.446Z,100576.79
2023-05-05T17:38:40.426Z,100576.84
2023-05-05T17:41:07.741Z,100581.71
2023-05-05T17:43:36.298Z,100580.23
2023-05-05T17:46:03.411Z,100583.94
2023-05-05T17:48:30.759Z,100579.23
2023-05-05T17:50:57.839Z,100583.02
2023-05-05T17:53:25.200Z,100585.11
2023-05-05T17:55:52.179Z,100591.48
2023-05-05T17:58:19.343Z,100592.23
2023-05-05T18:00:46.428Z,100593.95
2023-05-05T18:03:13.705Z,100593.91
2023-05-05T18:05:40.965Z,100595.63
2023-05-05T18:08:08.164Z,100596.63
2023-05-05T18:10:35.237Z,100595.33
2023-05-05T18:13:02.755Z,100603.44
2023-05-05T18:15:30.314Z,100606.71
2023-05-05T18:17:57.490Z,100606.48
2023-05-05T18:20:24.534Z,100613.17
2023-05-05T18:22:52.489Z,100610.42
2023-05-05T18:25:19.652Z,100608.67
2023-05-05T18:27:46.766Z,100612.27
2023-05-05T18:30:14.047Z,100617.14
2023-05-05T18:32:41.196Z,100617.04
2023-05-05T18:35:08.935Z,100621.60
2023-05-05T18:37:36.399Z,100621.48
2023-05-05T18:40:03.643Z,100625.45
2023-05-05T18:42:32.381Z,100623.83
2023-05-05T18:44:59.386Z,100623.59
2023-05-05T18:47:27.215Z,100623.89
2023-05-05T18:49:54.635Z,100623.35
2023-05-05T18:52:21.999Z,100622.65
2023-05-05T18:54:49.076Z,100623.64
2023-05-05T18:57:16.475Z,100627.78
2023-05-05T18:59:43.686Z,100629.08
2023-05-05T19:02:10.813Z,100628.41
2023-05-05T19:04:38.363Z,100631.73
2023-05-05T19:07:05.721Z,100635.10
2023-05-05T19:09:32.915Z,100635.70
2023-05-05T19:11:59.976Z,100641.31
2023-05-05T19:14:27.018Z,100644.27
2023-05-05T19:16:56.131Z,100644.95
2023-05-05T19:19:23.677Z,100647.43
2023-05-05T19:21:50.773Z,100648.14
2023-05-05T19:24:17.821Z,100650.05
2023-05-05T19:26:44.827Z,100657.97
2023-05-05T19:29:12.730Z,100655.71
2023-05-05T19:31:39.810Z,100663.50
2023-05-05T19:34:06.929Z,100665.70
2023-05-05T19:36:34.370Z,100671.20
2023-05-05T19:39:02.028Z,100666.61
2023-05-05T19:41:30.767Z,100670.56
2023-05-05T19:43:57.979Z,100671.15
2023-05-05T19:46:27.890Z,100669.43
2023-05-05T19:48:54.946Z,100673.15
2023-05-05T19:51:22.044Z,100668.52
2023-05-05T19:53:49.047Z,100665.77
2023-05-05T19:56:17.435Z,100669.06
2023-05-05T19:58:59.125Z,100672.65
2023-05-05T20:01:27.175Z,100673.90
2023-05-05T20:03:55.270Z,100677.61
2023-05-05T20:06:22.849Z,100670.05
2023-05-05T20:08:50.031Z,100668.97
2023-05-05T20:11:17.174Z,100674.84
2023-05-05T20:13:44.348Z,100672.65
2023-05-05T20:16:12.060Z,100670.08
2023-05-05T20:18:40.208Z,100670.08
2023-05-05T20:21:07.330Z,100668.91
2023-05-05T20:23:34.470Z,100666.01
2023-05-05T20:26:02.086Z,100662.45
2023-05-05T20:28:31.750Z,100664.69
2023-05-05T20:31:00.854Z,100668.10
2023-05-05T20:33:31.640Z,100671.47
2023-05-05T20:35:59.200Z,100671.75
2023-05-05T20:38:26.943Z,100673.27
2023-05-05T20:40:54.769Z,100677.83
2023-05-05T20:43:21.819Z,100683.76
2023-05-05T20:45:49.249Z,100682.33
2023-05-05T20:48:20.046Z,100687.95
2023-05-05T20:50:48.221Z,100682.87
2023-05-05T20:53:16.326Z,100683.70
2023-05-05T20:55:43.586Z,100686.84
2023-05-05T20:58:10.944Z,100685.60
2023-05-05T21:00:38.769Z,100688.40
2023-05-05T21:03:06.468Z,100692.92
2023-05-05T21:05:33.632Z,100696.89
2023-05-05T21:08:01.340Z,100698.89
2023-05-05T21:10:29.237Z,100705.98
2023-05-05T21:12:56.595Z,100705.46
2023-05-05T21:15:23.840Z,100710.55
2023-05-05T21:17:51.426Z,100704.94
2023-05-05T21:20:19.003Z,100708.98
2023-05-05T21:22:46.394Z,100706.67
2023-05-05T21:25:18.753Z,100708.12
2023-05-05T21:27:47.114Z,100709.98
2023-05-05T21:30:14.698Z,100710.94
2023-05-05T21:32:42.292Z,100709.60
2023-05-05T21:35:09.618Z,100712.11
2023-05-05T21:37:37.818Z,100720.13
2023-05-05T21:40:07.364Z,100717.55
2023-05-05T21:42:34.447Z,100723.61
2023-05-05T21:45:01.482Z,100715.10
2023-05-05T21:47:28.530Z,100715.49
2023-05-05T21:49:55.662Z,100717.55
2023-05-05T21:52:22.652Z,100714.21
2023-05-05T21:54:49.715Z,100721.65
2023-05-05T21:57:16.712Z,100723.33
2023-05-05T21:59:43.769Z,100728.73
2023-05-05T22:02:10.804Z,100733.79
2023-05-05T22:04:37.883Z,100740.62
2023-05-05T22:07:04.894Z,100739.58
2023-05-05T22:09:32.035Z,100739.48
2023-05-05T22:11:59.143Z,100746.39
2023-05-05T22:14:26.180Z,100743.80
2023-05-05T22:16:53.270Z,100746.06
2023-05-05T22:19:20.245Z,100745.38
2023-05-05T22:21:47.235Z,100746.41
2023-05-05T22:24:14.318Z,100744.13
2023-05-05T22:26:43.414Z,100746.38
2023-05-05T22:29:11.114Z,100746.18
2023-05-05T22:31:38.418Z,100742.52
2023-05-05T22:34:05.580Z,100743.63
2023-05-05T22:36:33.164Z,100746.16
2023-05-05T22:39:00.261Z,100749.04
2023-05-05T22:41:27.354Z,100744.63
2023-05-05T22:43:54.447Z,100749.20
2023-05-05T22:46:21.614Z,100752.86
2023-05-05T22:48:49.278Z,100755.78
2023-05-05T22:51:16.638Z,100760.12
2023-05-05T22:53:43.628Z,100754.23
2023-05-05T22:56:10.667Z,100757.97
2023-05-05T22:58:37.792Z,100757.38
2023-05-05T23:01:04.845Z,100759.48
2023-05-05T23:03:32.291Z,100761.95
2023-05-05T23:05:59.315Z,100768.30
2023-05-05T23:08:26.369Z,100766.02
2023-05-05T23:10:53.754Z,100770.60
2023-05-05T23:13:21.282Z,100776.63
2023-05-05T23:15:48.463Z,100784.36
2023-05-05T23:18:15.433Z,100790.89
2023-05-05T23:20:42.460Z,100793.70
2023-05-05T23:23:09.491Z,100797.51
2023-05-05T23:25:36.607Z,100798.71
2023-05-05T23:28:03.698Z,100796.57
2023-05-05T23:30:30.938Z,100800.27
2023-05-05T23:32:58.286Z,100803.11
2023-05-05T23:35:26.571Z,100802.05
2023-05-05T23:37:53.561Z,100803.09
2023-05-05T23:40:21.028Z,100802.84
2023-05-05T23:42:48.087Z,100803.83
2023-05-05T23:45:15.995Z,100803.03
2023-05-05T23:47:44.903Z,100807.17
2023-05-05T23:50:11.966Z,100807.91
2023-05-05T23:52:38.966Z,100811.16
2023-05-05T23:55:07.192Z,100812.79
2023-05-05T23:57:35.761Z,100813.09
